sensor_id;sensor_type;location;lat;lon;timestamp;pressure;altitude;pressure_sealevel;temperature;humidity
64644;BME280;51056;50.330;7.914;2022-12-11T00:00:10;100202.88;;;0.38;74.70
64644;BME280;51056;50.330;7.914;2022-12-11T00:03:20;100210.59;;;0.39;75.12
64644;BME280;51056;50.330;7.914;2022-12-11T00:06:23;100215.69;;;0.41;75.62
64644;BME280;51056;50.330;7.914;2022-12-11T00:09:27;100218.25;;;0.42;75.57
64644;BME280;51056;50.330;7.914;2022-12-11T00:12:30;100221.94;;;0.26;76.19
64644;BME280;51056;50.330;7.914;2022-12-11T00:15:39;100215.66;;;0.44;75.53
64644;BME280;51056;50.330;7.914;2022-12-11T00:18:43;100222.69;;;0.31;75.99
64644;BME280;51056;50.330;7.914;2022-12-11T00:21:46;100220.56;;;0.59;75.59
64644;BME280;51056;50.330;7.914;2022-12-11T00:25:00;100219.69;;;0.59;75.01
64644;BME280;51056;50.330;7.914;2022-12-11T00:28:04;100216.47;;;0.44;75.58
64644;BME280;51056;50.330;7.914;2022-12-11T00:31:16;100223.66;;;0.26;76.05
64644;BME280;51056;50.330;7.914;2022-12-11T00:34:29;100220.03;;;0.37;76.39
64644;BME280;51056;50.330;7.914;2022-12-11T00:37:38;100220.72;;;0.49;76.31
64644;BME280;51056;50.330;7.914;2022-12-11T00:40:44;100223.31;;;0.49;75.84
64644;BME280;51056;50.330;7.914;2022-12-11T00:43:50;100216.47;;;0.46;76.06
64644;BME280;51056;50.330;7.914;2022-12-11T00:46:59;100222.50;;;0.45;75.68
64644;BME280;51056;50.330;7.914;2022-12-11T00:50:06;100219.88;;;0.48;75.26
64644;BME280;51056;50.330;7.914;2022-12-11T00:53:10;100223.50;;;0.36;76.09
64644;BME280;51056;50.330;7.914;2022-12-11T00:56:19;100226.63;;;0.55;75.38
64644;BME280;51056;50.330;7.914;2022-12-11T00:59:27;100226.91;;;0.38;76.03
64644;BME280;51056;50.330;7.914;2022-12-11T01:02:32;100232.09;;;0.35;75.79
64644;BME280;51056;50.330;7.914;2022-12-11T01:05:36;100226.00;;;0.39;76.14
64644;BME280;51056;50.330;7.914;2022-12-11T01:08:50;100229.44;;;0.40;76.49
64644;BME280;51056;50.330;7.914;2022-12-11T01:12:16;100229.38;;;0.43;76.79
64644;BME280;51056;50.330;7.914;2022-12-11T01:15:21;100234.41;;;0.52;76.35
64644;BME280;51056;50.330;7.914;2022-12-11T01:18:25;100233.59;;;0.49;76.12
64644;BME280;51056;50.330;7.914;2022-12-11T01:21:29;100229.34;;;0.46;76.23
64644;BME280;51056;50.330;7.914;2022-12-11T01:24:40;100226.03;;;0.38;76.54
64644;BME280;51056;50.330;7.914;2022-12-11T01:27:44;100217.38;;;0.45;76.06
64644;BME280;51056;50.330;7.914;2022-12-11T01:30:47;100217.63;;;0.27;77.09
64644;BME280;51056;50.330;7.914;2022-12-11T01:33:52;100212.34;;;0.36;76.95
64644;BME280;51056;50.330;7.914;2022-12-11T01:36:59;100205.03;;;0.10;77.85
64644;BME280;51056;50.330;7.914;2022-12-11T01:40:04;100204.91;;;0.17;77.97
64644;BME280;51056;50.330;7.914;2022-12-11T01:43:10;100207.28;;;0.31;77.82
64644;BME280;51056;50.330;7.914;2022-12-11T01:46:13;100203.75;;;0.37;77.54
64644;BME280;51056;50.330;7.914;2022-12-11T01:49:18;100207.78;;;0.55;77.14
64644;BME280;51056;50.330;7.914;2022-12-11T01:52:25;100210.44;;;0.47;77.09
64644;BME280;51056;50.330;7.914;2022-12-11T01:55:29;100204.50;;;0.45;76.84
64644;BME280;51056;50.330;7.914;2022-12-11T01:58:39;100208.94;;;0.34;77.16
64644;BME280;51056;50.330;7.914;2022-12-11T02:02:07;100209.56;;;0.50;76.73
64644;BME280;51056;50.330;7.914;2022-12-11T02:05:13;100204.22;;;0.62;76.43
64644;BME280;51056;50.330;7.914;2022-12-11T02:08:17;100206.97;;;0.51;76.46
64644;BME280;51056;50.330;7.914;2022-12-11T02:11:34;100201.00;;;0.49;76.39
64644;BME280;51056;50.330;7.914;2022-12-11T02:14:47;100207.69;;;0.61;75.71
64644;BME280;51056;50.330;7.914;2022-12-11T02:24:52;100210.41;;;0.50;76.44
64644;BME280;51056;50.330;7.914;2022-12-11T02:28:16;100210.41;;;0.52;76.49
64644;BME280;51056;50.330;7.914;2022-12-11T02:31:41;100204.47;;;0.46;77.67
64644;BME280;51056;50.330;7.914;2022-12-11T02:35:01;100212.78;;;0.64;76.77
64644;BME280;51056;50.330;7.914;2022-12-11T02:38:16;100216.94;;;0.69;76.44
64644;BME280;51056;50.330;7.914;2022-12-11T02:41:23;100209.50;;;0.53;76.66
64644;BME280;51056;50.330;7.914;2022-12-11T02:44:31;100218.66;;;0.71;76.59
64644;BME280;51056;50.330;7.914;2022-12-11T02:47:39;100213.81;;;0.52;76.65
64644;BME280;51056;50.330;7.914;2022-12-11T02:50:49;100217.22;;;0.53;77.05
64644;BME280;51056;50.330;7.914;2022-12-11T02:53:59;100209.03;;;0.28;77.85
64644;BME280;51056;50.330;7.914;2022-12-11T02:57:12;100192.47;;;0.45;77.47
64644;BME280;51056;50.330;7.914;2022-12-11T03:00:17;100201.66;;;0.60;77.88
64644;BME280;51056;50.330;7.914;2022-12-11T03:03:21;100188.88;;;0.56;77.37
64644;BME280;51056;50.330;7.914;2022-12-11T03:06:35;100196.31;;;0.73;76.98
64644;BME280;51056;50.330;7.914;2022-12-11T03:09:41;100195.25;;;0.83;76.43
64644;BME280;51056;50.330;7.914;2022-12-11T03:12:48;100192.00;;;0.73;76.71
64644;BME280;51056;50.330;7.914;2022-12-11T03:19:40;100197.72;;;0.89;76.09
64644;BME280;51056;50.330;7.914;2022-12-11T03:22:58;100191.84;;;0.82;75.95
64644;BME280;51056;50.330;7.914;2022-12-11T03:26:12;100196.25;;;0.76;76.15
64644;BME280;51056;50.330;7.914;2022-12-11T03:29:22;100192.00;;;0.73;76.02
64644;BME280;51056;50.330;7.914;2022-12-11T03:32:40;100192.97;;;0.67;76.14
64644;BME280;51056;50.330;7.914;2022-12-11T03:36:00;100196.88;;;0.88;75.48
64644;BME280;51056;50.330;7.914;2022-12-11T03:39:08;100194.94;;;1.01;74.99
64644;BME280;51056;50.330;7.914;2022-12-11T03:42:14;100199.97;;;0.59;75.90
64644;BME280;51056;50.330;7.914;2022-12-11T03:45:20;100202.97;;;0.33;77.32
64644;BME280;51056;50.330;7.914;2022-12-11T03:48:30;100201.19;;;0.38;77.30
64644;BME280;51056;50.330;7.914;2022-12-11T03:51:36;100199.41;;;0.42;78.25
64644;BME280;51056;50.330;7.914;2022-12-11T03:54:42;100196.13;;;0.32;78.54
64644;BME280;51056;50.330;7.914;2022-12-11T03:57:48;100203.81;;;0.34;78.38
64644;BME280;51056;50.330;7.914;2022-12-11T04:00:51;100202.16;;;0.30;78.93
64644;BME280;51056;50.330;7.914;2022-12-11T04:03:54;100196.97;;;0.31;78.70
64644;BME280;51056;50.330;7.914;2022-12-11T04:06:58;100197.03;;;0.30;79.67
64644;BME280;51056;50.330;7.914;2022-12-11T04:10:03;100207.41;;;0.22;78.91
64644;BME280;51056;50.330;7.914;2022-12-11T04:13:08;100195.50;;;0.16;79.31
64644;BME280;51056;50.330;7.914;2022-12-11T04:16:12;100191.94;;;0.27;79.54
64644;BME280;51056;50.330;7.914;2022-12-11T04:19:15;100193.59;;;0.28;78.54
64644;BME280;51056;50.330;7.914;2022-12-11T04:22:37;100194.34;;;0.36;79.63
64644;BME280;51056;50.330;7.914;2022-12-11T04:26:14;100191.88;;;0.30;77.96
64644;BME280;51056;50.330;7.914;2022-12-11T04:29:21;100191.88;;;0.28;78.85
64644;BME280;51056;50.330;7.914;2022-12-11T04:32:24;100178.13;;;0.31;78.92
64644;BME280;51056;50.330;7.914;2022-12-11T04:35:28;100180.50;;;0.43;78.47
64644;BME280;51056;50.330;7.914;2022-12-11T04:38:31;100179.38;;;0.59;78.22
64644;BME280;51056;50.330;7.914;2022-12-11T04:41:39;100184.44;;;0.65;78.01
64644;BME280;51056;50.330;7.914;2022-12-11T04:44:43;100178.72;;;0.48;78.58
64644;BME280;51056;50.330;7.914;2022-12-11T04:47:47;100182.09;;;0.52;79.09
64644;BME280;51056;50.330;7.914;2022-12-11T04:50:51;100178.75;;;0.46;79.38
64644;BME280;51056;50.330;7.914;2022-12-11T04:53:58;100182.84;;;0.58;78.85
64644;BME280;51056;50.330;7.914;2022-12-11T04:57:01;100174.19;;;0.62;78.59
64644;BME280;51056;50.330;7.914;2022-12-11T05:00:08;100180.97;;;0.68;78.22
64644;BME280;51056;50.330;7.914;2022-12-11T05:03:13;100184.28;;;0.75;78.75
64644;BME280;51056;50.330;7.914;2022-12-11T05:06:20;100177.34;;;0.78;79.06
64644;BME280;51056;50.330;7.914;2022-12-11T05:09:24;100185.91;;;0.79;78.10
64644;BME280;51056;50.330;7.914;2022-12-11T05:12:40;100170.81;;;0.57;78.53
64644;BME280;51056;50.330;7.914;2022-12-11T05:15:44;100180.31;;;0.54;79.04
64644;BME280;51056;50.330;7.914;2022-12-11T05:18:51;100180.13;;;0.66;78.43
64644;BME280;51056;50.330;7.914;2022-12-11T05:21:57;100173.63;;;0.45;79.14
64644;BME280;51056;50.330;7.914;2022-12-11T05:25:03;100169.81;;;0.67;79.03
64644;BME280;51056;50.330;7.914;2022-12-11T05:28:11;100164.97;;;0.49;79.55
64644;BME280;51056;50.330;7.914;2022-12-11T05:31:18;100168.78;;;0.78;78.40
64644;BME280;51056;50.330;7.914;2022-12-11T05:34:23;100169.72;;;0.72;78.60
64644;BME280;51056;50.330;7.914;2022-12-11T05:37:33;100159.84;;;0.47;78.94
64644;BME280;51056;50.330;7.914;2022-12-11T05:40:40;100162.38;;;0.52;78.73
64644;BME280;51056;50.330;7.914;2022-12-11T05:43:46;100167.66;;;0.41;79.17
64644;BME280;51056;50.330;7.914;2022-12-11T05:46:49;100160.72;;;0.48;78.47
64644;BME280;51056;50.330;7.914;2022-12-11T05:49:52;100154.34;;;0.69;77.52
64644;BME280;51056;50.330;7.914;2022-12-11T05:52:59;100153.50;;;0.68;77.77
64644;BME280;51056;50.330;7.914;2022-12-11T05:59:14;100143.63;;;0.44;79.08
64644;BME280;51056;50.330;7.914;2022-12-11T06:02:21;100148.75;;;0.44;78.11
64644;BME280;51056;50.330;7.914;2022-12-11T06:05:41;100144.69;;;0.31;78.54
64644;BME280;51056;50.330;7.914;2022-12-11T06:08:48;100145.69;;;0.23;80.05
64644;BME280;51056;50.330;7.914;2022-12-11T06:11:55;100141.94;;;0.43;79.22
64644;BME280;51056;50.330;7.914;2022-12-11T06:15:02;100143.47;;;0.53;78.98
64644;BME280;51056;50.330;7.914;2022-12-11T06:18:07;100146.94;;;0.52;79.16
64644;BME280;51056;50.330;7.914;2022-12-11T06:21:19;100154.81;;;0.41;80.09
64644;BME280;51056;50.330;7.914;2022-12-11T06:24:22;100142.72;;;0.46;80.50
64644;BME280;51056;50.330;7.914;2022-12-11T06:27:26;100149.19;;;0.69;79.46
64644;BME280;51056;50.330;7.914;2022-12-11T06:30:29;100147.91;;;0.93;78.44
64644;BME280;51056;50.330;7.914;2022-12-11T06:33:36;100133.31;;;0.92;77.99
64644;BME280;51056;50.330;7.914;2022-12-11T06:36:39;100143.78;;;0.84;77.19
64644;BME280;51056;50.330;7.914;2022-12-11T06:39:43;100145.56;;;0.81;77.53
64644;BME280;51056;50.330;7.914;2022-12-11T06:42:46;100138.94;;;0.66;78.52
64644;BME280;51056;50.330;7.914;2022-12-11T06:45:55;100147.25;;;0.82;78.10
64644;BME280;51056;50.330;7.914;2022-12-11T06:49:01;100150.25;;;0.57;78.62
64644;BME280;51056;50.330;7.914;2022-12-11T06:52:05;100147.97;;;0.90;78.24
64644;BME280;51056;50.330;7.914;2022-12-11T06:55:12;100151.22;;;0.98;77.81
64644;BME280;51056;50.330;7.914;2022-12-11T06:58:20;100151.16;;;1.01;77.53
64644;BME280;51056;50.330;7.914;2022-12-11T07:01:27;100152.81;;;1.05;77.59
64644;BME280;51056;50.330;7.914;2022-12-11T07:04:30;100158.78;;;1.07;77.18
64644;BME280;51056;50.330;7.914;2022-12-11T07:07:35;100160.78;;;0.93;77.50
64644;BME280;51056;50.330;7.914;2022-12-11T07:10:38;100160.91;;;0.85;77.79
64644;BME280;51056;50.330;7.914;2022-12-11T07:13:44;100161.75;;;0.87;77.81
64644;BME280;51056;50.330;7.914;2022-12-11T07:16:48;100148.06;;;0.84;77.96
64644;BME280;51056;50.330;7.914;2022-12-11T07:19:52;100152.28;;;0.88;77.27
64644;BME280;51056;50.330;7.914;2022-12-11T07:27:59;100143.25;;;0.65;77.05
64644;BME280;51056;50.330;7.914;2022-12-11T07:31:07;100138.53;;;0.89;76.53
64644;BME280;51056;50.330;7.914;2022-12-11T07:34:12;100148.03;;;0.87;76.65
64644;BME280;51056;50.330;7.914;2022-12-11T07:37:19;100133.88;;;0.63;77.38
64644;BME280;51056;50.330;7.914;2022-12-11T07:40:23;100140.53;;;0.23;78.51
64644;BME280;51056;50.330;7.914;2022-12-11T07:43:30;100127.41;;;0.40;77.53
64644;BME280;51056;50.330;7.914;2022-12-11T07:46:38;100134.59;;;0.71;77.37
64644;BME280;51056;50.330;7.914;2022-12-11T07:49:42;100145.00;;;0.63;77.77
64644;BME280;51056;50.330;7.914;2022-12-11T07:52:46;100146.66;;;0.67;78.48
64644;BME280;51056;50.330;7.914;2022-12-11T07:55:51;100146.69;;;0.66;78.68
64644;BME280;51056;50.330;7.914;2022-12-11T07:59:17;100154.34;;;0.71;79.16
64644;BME280;51056;50.330;7.914;2022-12-11T08:02:22;100160.97;;;0.82;78.89
64644;BME280;51056;50.330;7.914;2022-12-11T08:05:29;100161.41;;;1.04;77.57
64644;BME280;51056;50.330;7.914;2022-12-11T08:08:39;100165.22;;;0.85;78.87
64644;BME280;51056;50.330;7.914;2022-12-11T08:11:53;100158.00;;;1.04;77.97
64644;BME280;51056;50.330;7.914;2022-12-11T08:14:57;100167.56;;;0.97;78.14
64644;BME280;51056;50.330;7.914;2022-12-11T08:18:00;100157.09;;;1.06;77.26
64644;BME280;51056;50.330;7.914;2022-12-11T08:21:05;100159.72;;;1.03;76.97
64644;BME280;51056;50.330;7.914;2022-12-11T08:24:09;100166.69;;;0.98;77.25
64644;BME280;51056;50.330;7.914;2022-12-11T08:27:13;100170.97;;;0.99;77.37
64644;BME280;51056;50.330;7.914;2022-12-11T08:40:50;100167.88;;;0.80;78.23
64644;BME280;51056;50.330;7.914;2022-12-11T08:48:23;100170.25;;;0.91;77.29
64644;BME280;51056;50.330;7.914;2022-12-11T08:51:30;100176.97;;;0.98;76.54
64644;BME280;51056;50.330;7.914;2022-12-11T08:54:36;100164.69;;;0.66;77.59
64644;BME280;51056;50.330;7.914;2022-12-11T08:57:43;100166.09;;;0.84;77.84
64644;BME280;51056;50.330;7.914;2022-12-11T09:00:49;100163.97;;;1.06;77.41
64644;BME280;51056;50.330;7.914;2022-12-11T09:03:56;100161.53;;;0.98;77.61
64644;BME280;51056;50.330;7.914;2022-12-11T09:07:03;100163.19;;;1.02;77.11
64644;BME280;51056;50.330;7.914;2022-12-11T09:10:08;100153.63;;;1.07;76.85
64644;BME280;51056;50.330;7.914;2022-12-11T09:13:15;100156.09;;;1.13;76.24
64644;BME280;51056;50.330;7.914;2022-12-11T09:16:29;100157.59;;;1.24;74.67
64644;BME280;51056;50.330;7.914;2022-12-11T09:28:03;100150.81;;;1.20;76.02
64644;BME280;51056;50.330;7.914;2022-12-11T09:31:17;100154.78;;;1.36;74.52
64644;BME280;51056;50.330;7.914;2022-12-11T09:34:24;100169.69;;;1.22;75.79
64644;BME280;51056;50.330;7.914;2022-12-11T09:38:02;100162.94;;;1.14;75.17
64644;BME280;51056;50.330;7.914;2022-12-11T09:44:52;100160.03;;;1.31;75.07
64644;BME280;51056;50.330;7.914;2022-12-11T09:47:59;100153.44;;;1.16;75.04
64644;BME280;51056;50.330;7.914;2022-12-11T09:51:16;100150.09;;;1.11;75.55
64644;BME280;51056;50.330;7.914;2022-12-11T09:54:38;100153.63;;;1.09;75.84
64644;BME280;51056;50.330;7.914;2022-12-11T10:02:01;100153.19;;;0.85;75.85
64644;BME280;51056;50.330;7.914;2022-12-11T10:05:36;100138.34;;;0.98;74.85
64644;BME280;51056;50.330;7.914;2022-12-11T10:09:14;100132.81;;;0.75;75.69
64644;BME280;51056;50.330;7.914;2022-12-11T10:15:59;100118.53;;;1.03;74.47
64644;BME280;51056;50.330;7.914;2022-12-11T10:20:04;100122.06;;;0.99;75.14
64644;BME280;51056;50.330;7.914;2022-12-11T10:23:31;100119.56;;;0.95;74.88
64644;BME280;51056;50.330;7.914;2022-12-11T10:27:33;100113.91;;;1.19;74.02
64644;BME280;51056;50.330;7.914;2022-12-11T10:34:41;100106.34;;;1.52;72.46
64644;BME280;51056;50.330;7.914;2022-12-11T10:37:50;100104.41;;;1.63;72.51
64644;BME280;51056;50.330;7.914;2022-12-11T10:41:11;100111.94;;;1.71;71.72
64644;BME280;51056;50.330;7.914;2022-12-11T10:45:14;100102.97;;;1.89;71.23
64644;BME280;51056;50.330;7.914;2022-12-11T10:48:50;100108.16;;;1.47;74.38
64644;BME280;51056;50.330;7.914;2022-12-11T10:52:22;100108.47;;;1.72;72.57
64644;BME280;51056;50.330;7.914;2022-12-11T10:55:47;100109.50;;;1.65;73.00
64644;BME280;51056;50.330;7.914;2022-12-11T10:58:59;100106.88;;;1.68;73.40
64644;BME280;51056;50.330;7.914;2022-12-11T11:02:33;100103.31;;;1.73;71.90
64644;BME280;51056;50.330;7.914;2022-12-11T11:05:43;100095.88;;;1.97;71.69
64644;BME280;51056;50.330;7.914;2022-12-11T11:08:51;100095.22;;;1.89;72.07
64644;BME280;51056;50.330;7.914;2022-12-11T11:12:02;100094.97;;;1.98;71.60
64644;BME280;51056;50.330;7.914;2022-12-11T11:18:25;100083.47;;;1.38;73.94
64644;BME280;51056;50.330;7.914;2022-12-11T11:21:34;100085.59;;;1.17;74.94
64644;BME280;51056;50.330;7.914;2022-12-11T11:28:12;100078.78;;;1.16;74.26
64644;BME280;51056;50.330;7.914;2022-12-11T11:31:34;100085.78;;;1.10;74.75
64644;BME280;51056;50.330;7.914;2022-12-11T11:34:45;100079.38;;;1.29;75.02
64644;BME280;51056;50.330;7.914;2022-12-11T11:38:16;100075.69;;;1.41;73.76
64644;BME280;51056;50.330;7.914;2022-12-11T11:41:36;100069.97;;;1.27;74.17
64644;BME280;51056;50.330;7.914;2022-12-11T11:45:02;100073.78;;;1.49;73.69
64644;BME280;51056;50.330;7.914;2022-12-11T11:59:18;100057.56;;;1.81;72.44
64644;BME280;51056;50.330;7.914;2022-12-11T12:03:10;100056.66;;;1.84;73.32
64644;BME280;51056;50.330;7.914;2022-12-11T12:14:08;100049.72;;;1.86;73.36
64644;BME280;51056;50.330;7.914;2022-12-11T12:17:53;100051.63;;;1.78;73.56
64644;BME280;51056;50.330;7.914;2022-12-11T12:32:39;100031.41;;;2.31;71.06
64644;BME280;51056;50.330;7.914;2022-12-11T12:36:17;100030.03;;;2.18;71.84
64644;BME280;51056;50.330;7.914;2022-12-11T12:42:59;100026.47;;;2.22;71.85
64644;BME280;51056;50.330;7.914;2022-12-11T12:46:31;100019.59;;;2.22;72.04
64644;BME280;51056;50.330;7.914;2022-12-11T12:49:52;100030.03;;;2.18;70.72
64644;BME280;51056;50.330;7.914;2022-12-11T12:53:00;100026.88;;;2.06;71.64
64644;BME280;51056;50.330;7.914;2022-12-11T12:56:12;100027.03;;;2.00;71.85
64644;BME280;51056;50.330;7.914;2022-12-11T12:59:56;100021.78;;;2.36;71.75
64644;BME280;51056;50.330;7.914;2022-12-11T13:06:54;100026.84;;;2.41;70.09
64644;BME280;51056;50.330;7.914;2022-12-11T13:10:39;100027.66;;;1.76;71.40
64644;BME280;51056;50.330;7.914;2022-12-11T13:17:24;100035.88;;;1.54;71.84
64644;BME280;51056;50.330;7.914;2022-12-11T13:20:48;100041.91;;;1.53;71.84
64644;BME280;51056;50.330;7.914;2022-12-11T13:27:43;100038.09;;;1.70;71.35
64644;BME280;51056;50.330;7.914;2022-12-11T13:34:31;100037.97;;;1.76;71.43
64644;BME280;51056;50.330;7.914;2022-12-11T13:37:49;100035.47;;;1.71;71.11
64644;BME280;51056;50.330;7.914;2022-12-11T14:43:46;100066.75;;;1.93;71.71
64644;BME280;51056;50.330;7.914;2022-12-11T14:46:54;100081.28;;;1.96;71.80
64644;BME280;51056;50.330;7.914;2022-12-11T14:53:43;100070.50;;;1.80;72.32
64644;BME280;51056;50.330;7.914;2022-12-11T14:56:49;100072.94;;;1.84;72.79
64644;BME280;51056;50.330;7.914;2022-12-11T15:00:00;100081.94;;;2.04;72.19
64644;BME280;51056;50.330;7.914;2022-12-11T15:06:27;100082.75;;;2.07;73.74
64644;BME280;51056;50.330;7.914;2022-12-11T15:12:45;100076.22;;;1.93;73.89
64644;BME280;51056;50.330;7.914;2022-12-11T19:48:50;100073.69;;;1.52;79.35
64644;BME280;51056;50.330;7.914;2022-12-11T19:52:06;100075.22;;;1.61;78.96
64644;BME280;51056;50.330;7.914;2022-12-11T20:00:47;100077.22;;;1.48;79.53
64644;BME280;51056;50.330;7.914;2022-12-11T20:03:54;100067.88;;;1.44;79.20
64644;BME280;51056;50.330;7.914;2022-12-11T20:07:24;100064.34;;;1.48;79.26
64644;BME280;51056;50.330;7.914;2022-12-11T20:11:11;100064.41;;;1.45;79.52
64644;BME280;51056;50.330;7.914;2022-12-11T20:14:35;100068.41;;;1.58;79.04
64644;BME280;51056;50.330;7.914;2022-12-11T20:18:01;100063.25;;;1.60;79.10
64644;BME280;51056;50.330;7.914;2022-12-11T20:21:15;100065.97;;;1.52;79.50
64644;BME280;51056;50.330;7.914;2022-12-11T20:24:47;100071.25;;;1.46;78.68
64644;BME280;51056;50.330;7.914;2022-12-11T20:28:26;100067.19;;;1.37;79.17
64644;BME280;51056;50.330;7.914;2022-12-11T20:32:41;100064.59;;;1.37;79.16
64644;BME280;51056;50.330;7.914;2022-12-11T20:36:20;100069.78;;;1.36;79.22
64644;BME280;51056;50.330;7.914;2022-12-11T20:39:29;100067.13;;;1.39;79.08
64644;BME280;51056;50.330;7.914;2022-12-11T20:42:52;100075.81;;;1.35;79.15
64644;BME280;51056;50.330;7.914;2022-12-11T20:45:59;100080.97;;;1.33;79.66
64644;BME280;51056;50.330;7.914;2022-12-11T20:49:06;100076.06;;;1.23;80.23
64644;BME280;51056;50.330;7.914;2022-12-11T20:52:17;100076.00;;;1.26;80.58
64644;BME280;51056;50.330;7.914;2022-12-11T20:55:26;100076.69;;;1.34;80.24
64644;BME280;51056;50.330;7.914;2022-12-11T21:03:48;100072.25;;;1.41;80.47
64644;BME280;51056;50.330;7.914;2022-12-11T21:07:00;100078.84;;;1.52;79.79
64644;BME280;51056;50.330;7.914;2022-12-11T21:13:46;100084.91;;;1.51;79.98
64644;BME280;51056;50.330;7.914;2022-12-11T21:16:49;100077.75;;;1.62;79.40
64644;BME280;51056;50.330;7.914;2022-12-11T21:19:58;100074.63;;;1.50;79.81
64644;BME280;51056;50.330;7.914;2022-12-11T21:23:09;100075.63;;;1.44;80.15
64644;BME280;51056;50.330;7.914;2022-12-11T21:26:17;100083.09;;;1.56;79.60
64644;BME280;51056;50.330;7.914;2022-12-11T21:29:25;100076.22;;;1.55;79.62
64644;BME280;51056;50.330;7.914;2022-12-11T21:33:05;100074.06;;;1.74;79.25
64644;BME280;51056;50.330;7.914;2022-12-11T21:36:12;100076.16;;;1.58;78.94
64644;BME280;51056;50.330;7.914;2022-12-11T21:48:21;100083.34;;;1.44;79.52
64644;BME280;51056;50.330;7.914;2022-12-11T21:51:29;100083.88;;;1.20;79.86
64644;BME280;51056;50.330;7.914;2022-12-11T21:54:36;100087.31;;;1.19;80.46
64644;BME280;51056;50.330;7.914;2022-12-11T21:57:49;100084.72;;;1.20;80.83
64644;BME280;51056;50.330;7.914;2022-12-11T22:00:53;100096.28;;;1.41;79.66
64644;BME280;51056;50.330;7.914;2022-12-11T22:03:58;100098.81;;;1.44;79.39
64644;BME280;51056;50.330;7.914;2022-12-11T22:07:02;100091.81;;;1.49;79.29
64644;BME280;51056;50.330;7.914;2022-12-11T22:10:10;100094.28;;;1.54;79.14
64644;BME280;51056;50.330;7.914;2022-12-11T22:13:26;100091.88;;;1.46;79.36
64644;BME280;51056;50.330;7.914;2022-12-11T22:16:30;100094.28;;;1.54;79.00
64644;BME280;51056;50.330;7.914;2022-12-11T22:19:37;100099.13;;;1.69;78.59
64644;BME280;51056;50.330;7.914;2022-12-11T22:22:42;100097.28;;;1.34;79.43
64644;BME280;51056;50.330;7.914;2022-12-11T22:25:48;100102.25;;;1.43;79.48
64644;BME280;51056;50.330;7.914;2022-12-11T22:28:55;100104.22;;;1.30;80.53
64644;BME280;51056;50.330;7.914;2022-12-11T22:32:00;100107.75;;;1.28;80.71
64644;BME280;51056;50.330;7.914;2022-12-11T22:35:03;100100.44;;;1.48;79.80
64644;BME280;51056;50.330;7.914;2022-12-11T22:38:11;100101.44;;;1.41;79.69
64644;BME280;51056;50.330;7.914;2022-12-11T22:41:31;100104.03;;;1.41;79.83
64644;BME280;51056;50.330;7.914;2022-12-11T22:44:42;100108.25;;;1.44;79.37
64644;BME280;51056;50.330;7.914;2022-12-11T22:47:48;100105.84;;;1.36;79.79
64644;BME280;51056;50.330;7.914;2022-12-11T22:51:05;100108.22;;;1.45;79.55
64644;BME280;51056;50.330;7.914;2022-12-11T22:54:14;100099.72;;;1.40;79.75
64644;BME280;51056;50.330;7.914;2022-12-11T22:57:28;100108.47;;;1.34;79.99
64644;BME280;51056;50.330;7.914;2022-12-11T23:00:34;100105.06;;;1.32;80.02
64644;BME280;51056;50.330;7.914;2022-12-11T23:03:42;100100.81;;;1.30;80.46
64644;BME280;51056;50.330;7.914;2022-12-11T23:06:46;100098.88;;;1.41;80.12
64644;BME280;51056;50.330;7.914;2022-12-11T23:10:01;100104.16;;;1.35;80.26
64644;BME280;51056;50.330;7.914;2022-12-11T23:13:07;100093.72;;;1.41;79.69
64644;BME280;51056;50.330;7.914;2022-12-11T23:16:11;100099.78;;;1.38;79.60
64644;BME280;51056;50.330;7.914;2022-12-11T23:19:16;100093.16;;;1.27;80.17
64644;BME280;51056;50.330;7.914;2022-12-11T23:22:21;100104.28;;;1.29;80.11
64644;BME280;51056;50.330;7.914;2022-12-11T23:25:27;100101.66;;;1.30;79.90
64644;BME280;51056;50.330;7.914;2022-12-11T23:28:44;100102.59;;;1.28;79.79
64644;BME280;51056;50.330;7.914;2022-12-11T23:31:56;100105.22;;;1.25;80.25
64644;BME280;51056;50.330;7.914;2022-12-11T23:35:11;100106.09;;;1.24;80.50
64644;BME280;51056;50.330;7.914;2022-12-11T23:38:17;100105.31;;;1.20;80.50
64644;BME280;51056;50.330;7.914;2022-12-11T23:41:27;100106.69;;;1.36;79.81
64644;BME280;51056;50.330;7.914;2022-12-11T23:44:34;100108.34;;;1.39;79.75
64644;BME280;51056;50.330;7.914;2022-12-11T23:47:37;100110.16;;;1.35;79.99
64644;BME280;51056;50.330;7.914;2022-12-11T23:50:44;100107.25;;;1.49;79.64
64644;BME280;51056;50.330;7.914;2022-12-11T23:53:54;100109.69;;;1.57;78.96
64644;BME280;51056;50.330;7.914;2022-12-11T23:57:01;100109.78;;;1.52;78.93
